createdAt,value
2022-11-03T00:04:06.094Z,0.80
2022-11-03T00:08:06.237Z,1.50
2022-11-03T00:14:23.095Z,1.50
2022-11-03T00:17:21.246Z,1.30
2022-11-03T00:21:20.791Z,1.50
2022-11-03T00:25:19.383Z,2.00
2022-11-03T00:29:25.273Z,1.60
2022-11-03T00:38:31.842Z,1.30
2022-11-03T00:42:05.073Z,1.60
2022-11-03T00:46:28.273Z,1.20
2022-11-03T00:50:26.806Z,2.70
2022-11-03T00:54:29.908Z,1.40
2022-11-03T00:58:03.265Z,1.40
2022-11-03T01:02:07.868Z,1.40
2022-11-03T01:06:06.058Z,1.60
2022-11-03T01:09:37.185Z,1.60
2022-11-03T01:12:57.885Z,1.40
2022-11-03T01:16:38.173Z,1.60
2022-11-03T01:20:13.304Z,1.60
2022-11-03T01:23:54.610Z,1.70
2022-11-03T01:27:31.264Z,1.80
2022-11-03T01:31:24.027Z,1.50
2022-11-03T01:34:48.335Z,0.90
2022-11-03T01:38:20.332Z,0.90
2022-11-03T01:41:56.932Z,1.30
2022-11-03T01:46:26.451Z,1.50
2022-11-03T01:49:47.241Z,1.30
2022-11-03T01:53:50.716Z,1.40
2022-11-03T01:58:17.543Z,1.90
2022-11-03T02:01:28.836Z,1.20
2022-11-03T02:05:32.159Z,3.50
2022-11-03T02:09:34.898Z,1.60
2022-11-03T02:13:26.944Z,1.10
2022-11-03T02:17:49.279Z,1.20
2022-11-03T02:21:27.660Z,1.80
2022-11-03T02:25:38.421Z,1.60
2022-11-03T02:29:39.595Z,2.80
2022-11-03T02:33:30.433Z,1.40
2022-11-03T02:37:38.608Z,0.90
2022-11-03T02:41:15.444Z,1.10
2022-11-03T02:44:52.864Z,1.20
2022-11-03T02:48:30.594Z,1.30
2022-11-03T02:52:07.323Z,1.40
2022-11-03T02:56:04.091Z,1.80
2022-11-03T03:00:11.012Z,1.70
2022-11-03T03:03:53.797Z,2.00
2022-11-03T03:07:36.432Z,1.80
2022-11-03T03:11:42.814Z,3.90
2022-11-03T03:16:06.506Z,1.90
2022-11-03T03:19:41.181Z,1.70
2022-11-03T03:23:06.217Z,1.90
2022-11-03T03:27:14.258Z,1.10
2022-11-03T03:31:18.089Z,2.10
2022-11-03T03:35:28.082Z,1.60
2022-11-03T03:39:37.086Z,1.50
2022-11-03T03:43:13.033Z,1.60
2022-11-03T03:47:11.408Z,3.80
2022-11-03T03:50:28.624Z,2.30
2022-11-03T03:54:03.516Z,2.60
2022-11-03T03:57:37.950Z,2.20
2022-11-03T04:01:43.458Z,3.10
2022-11-03T04:05:19.806Z,2.90
2022-11-03T04:08:55.607Z,2.60
2022-11-03T04:12:55.012Z,3.10
2022-11-03T04:16:31.518Z,3.00
2022-11-03T04:20:12.114Z,2.90
2022-11-03T04:23:24.832Z,2.60
2022-11-03T04:27:29.061Z,2.60
2022-11-03T04:30:38.628Z,3.40
2022-11-03T04:34:37.565Z,2.40
2022-11-03T04:38:39.961Z,2.10
2022-11-03T04:42:20.317Z,2.50
2022-11-03T04:46:26.624Z,2.70
2022-11-03T04:50:25.301Z,2.10
2022-11-03T04:54:27.268Z,2.70
2022-11-03T04:58:21.822Z,2.70
2022-11-03T05:01:43.983Z,2.10
2022-11-03T05:05:47.573Z,2.10
2022-11-03T05:09:53.788Z,2.20
2022-11-03T05:13:29.404Z,1.90
2022-11-03T05:17:23.180Z,2.70
2022-11-03T05:20:50.585Z,2.40
2022-11-03T05:24:26.242Z,2.30
2022-11-03T05:27:55.409Z,2.40
2022-11-03T05:31:56.245Z,3.40
2022-11-03T05:35:58.027Z,2.90
2022-11-03T05:39:59.842Z,1.80
2022-11-03T05:44:02.755Z,2.30
2022-11-03T05:48:04.213Z,2.60
2022-11-03T05:52:13.174Z,2.30
2022-11-03T05:56:22.045Z,2.80
2022-11-03T05:59:52.949Z,2.20
2022-11-03T06:03:51.561Z,2.40
2022-11-03T06:07:53.049Z,3.70
2022-11-03T06:11:56.998Z,2.00
2022-11-03T06:16:02.803Z,2.90
2022-11-03T06:20:16.273Z,2.20
2022-11-03T06:23:59.192Z,2.20
2022-11-03T06:27:23.180Z,4.20
2022-11-03T06:31:29.696Z,2.40
2022-11-03T06:35:28.651Z,2.10
2022-11-03T06:39:29.679Z,2.70
2022-11-03T06:43:31.934Z,2.80
2022-11-03T06:47:34.674Z,2.40
2022-11-03T06:51:38.077Z,2.50
2022-11-03T06:55:25.920Z,3.40
2022-11-03T06:59:28.094Z,2.20
2022-11-03T07:03:33.574Z,2.50
2022-11-03T07:06:46.780Z,2.20
2022-11-03T07:11:13.224Z,1.70
2022-11-03T07:14:38.400Z,2.30
2022-11-03T07:18:27.161Z,2.20
2022-11-03T07:21:52.417Z,2.90
2022-11-03T07:25:22.456Z,2.50
2022-11-03T07:29:25.438Z,2.20
2022-11-03T07:33:28.239Z,2.30
2022-11-03T07:37:30.966Z,2.00
2022-11-03T07:41:18.762Z,2.00
2022-11-03T07:44:44.175Z,2.30
2022-11-03T07:48:49.167Z,2.10
2022-11-03T07:52:28.989Z,2.00
2022-11-03T07:56:35.273Z,3.30
2022-11-03T07:59:50.424Z,2.60
2022-11-03T08:03:57.655Z,2.10
2022-11-03T08:07:31.914Z,2.60
2022-11-03T08:11:33.813Z,1.60
2022-11-03T08:15:40.477Z,1.70
2022-11-03T08:19:17.909Z,2.40
2022-11-03T08:23:19.760Z,1.90
2022-11-03T08:26:29.952Z,1.80
2022-11-03T08:30:36.216Z,1.80
2022-11-03T08:34:14.371Z,2.30
2022-11-03T08:37:51.036Z,1.90
2022-11-03T08:41:47.158Z,2.20
2022-11-03T08:45:04.040Z,2.30
2022-11-03T08:48:41.864Z,1.70
2022-11-03T08:52:22.358Z,2.30
2022-11-03T08:55:56.692Z,2.10
2022-11-03T09:00:02.082Z,2.10
2022-11-03T09:03:41.394Z,2.20
2022-11-03T09:07:14.418Z,2.70
2022-11-03T09:11:19.782Z,2.40
2022-11-03T09:14:56.460Z,2.00
2022-11-03T09:18:34.961Z,1.90
2022-11-03T09:22:30.513Z,2.10
2022-11-03T09:25:50.036Z,2.60
2022-11-03T09:29:32.824Z,2.00
2022-11-03T09:33:05.665Z,2.40
2022-11-03T09:37:01.157Z,2.10
2022-11-03T09:40:22.167Z,3.10
2022-11-03T09:44:00.761Z,2.70
2022-11-03T10:14:31.057Z,1.90
2022-11-03T10:17:31.415Z,1.80
2022-11-03T10:21:34.806Z,2.20
2022-11-03T10:25:44.297Z,2.00
2022-11-03T10:29:45.388Z,2.30
2022-11-03T10:33:54.925Z,2.00
2022-11-03T10:37:52.615Z,1.60
2022-11-03T10:42:00.559Z,1.80
2022-11-03T10:46:36.710Z,2.50
2022-11-03T10:50:32.399Z,1.70
2022-11-03T10:54:36.356Z,1.40
2022-11-03T10:58:35.377Z,1.50
2022-11-03T11:02:36.817Z,2.20
2022-11-03T11:06:35.158Z,2.00
2022-11-03T11:10:34.998Z,1.00
2022-11-03T11:14:53.024Z,1.20
2022-11-03T11:18:51.297Z,1.00
2022-11-03T11:23:29.138Z,2.30
2022-11-03T11:27:41.196Z,1.30
2022-11-03T11:31:53.278Z,0.80
2022-11-03T11:35:54.034Z,1.40
2022-11-03T11:39:56.578Z,1.60
2022-11-03T11:44:15.123Z,0.70
2022-11-03T11:48:19.175Z,1.00
2022-11-03T11:52:19.158Z,1.50
2022-11-03T11:56:19.158Z,1.60
2022-11-03T12:00:22.716Z,1.40
2022-11-03T12:04:25.705Z,1.20
2022-11-03T12:08:30.858Z,1.70
2022-11-03T12:12:35.818Z,1.80
2022-11-03T12:16:36.507Z,1.40
2022-11-03T12:20:36.639Z,1.50
2022-11-03T12:24:53.739Z,1.50
2022-11-03T12:28:51.702Z,1.30
2022-11-03T12:32:49.844Z,2.10
2022-11-03T12:36:51.796Z,1.50
2022-11-03T12:40:53.997Z,1.30
2022-11-03T12:44:53.357Z,1.40
2022-11-03T12:48:52.555Z,1.50
2022-11-03T12:53:06.985Z,1.50
2022-11-03T12:57:05.777Z,1.50
2022-11-03T13:01:05.154Z,2.60
2022-11-03T13:05:03.116Z,2.50
2022-11-03T13:09:01.039Z,1.50
2022-11-03T13:13:19.303Z,2.70
2022-11-03T13:17:17.498Z,1.50
2022-11-03T13:21:16.739Z,1.60
2022-11-03T13:25:15.076Z,1.80
2022-11-03T13:29:13.238Z,2.60
2022-11-03T13:33:25.669Z,1.50
2022-11-03T13:37:24.266Z,1.60
2022-11-03T13:41:36.314Z,1.90
2022-11-03T13:45:34.437Z,1.80
2022-11-03T14:06:49.002Z,1.40
2022-11-03T14:10:47.296Z,1.40
2022-11-03T14:15:09.202Z,1.90
2022-11-03T14:19:07.576Z,1.80
2022-11-03T14:23:06.046Z,1.80
2022-11-03T14:27:04.998Z,1.60
2022-11-03T14:31:05.568Z,2.50
2022-11-03T14:35:18.001Z,2.70
2022-11-03T14:39:16.499Z,2.80
2022-11-03T14:43:15.375Z,2.30
2022-11-03T14:47:30.527Z,4.10
2022-11-03T14:51:43.083Z,2.30
2022-11-03T14:55:55.446Z,2.60
2022-11-03T14:59:54.479Z,2.70
2022-11-03T15:04:02.534Z,2.10
2022-11-03T15:08:18.478Z,1.80
2022-11-03T15:11:52.515Z,2.20
2022-11-03T15:15:51.559Z,3.00
2022-11-03T15:20:04.288Z,1.90
2022-11-03T15:28:21.830Z,2.30
2022-11-03T15:32:20.111Z,1.70
2022-11-03T15:36:18.821Z,2.50
2022-11-03T15:40:30.846Z,2.90
2022-11-03T15:44:28.995Z,3.60
2022-11-03T15:48:41.278Z,2.70
2022-11-03T15:52:39.730Z,2.70
2022-11-03T15:56:39.319Z,2.50
2022-11-03T16:01:05.686Z,3.40
2022-11-03T16:04:16.733Z,2.90
2022-11-03T16:08:15.237Z,2.40
2022-11-03T16:12:14.480Z,3.00
2022-11-03T16:16:13.350Z,2.30
2022-11-03T16:20:11.863Z,2.80
2022-11-03T16:24:33.325Z,2.90
2022-11-03T16:28:47.795Z,2.70
2022-11-03T16:32:47.649Z,2.40
2022-11-03T16:37:01.029Z,4.30
2022-11-03T16:40:59.323Z,2.70
2022-11-03T16:44:58.601Z,3.00
2022-11-03T16:48:56.989Z,3.40
2022-11-03T16:53:09.786Z,2.90
2022-11-03T17:14:39.490Z,3.20
2022-11-03T17:17:39.734Z,3.80
2022-11-03T17:21:18.853Z,3.30
2022-11-03T17:25:28.228Z,3.50
2022-11-03T17:29:28.614Z,3.50
2022-11-03T17:32:43.063Z,4.20
2022-11-03T17:36:41.798Z,2.90
2022-11-03T17:40:42.379Z,3.60
2022-11-03T17:44:41.257Z,3.60
2022-11-03T17:48:40.574Z,4.70
2022-11-03T17:52:39.773Z,4.50
2022-11-03T17:56:38.712Z,3.80
2022-11-03T18:00:37.780Z,4.60
2022-11-03T18:04:36.418Z,4.80
2022-11-03T18:08:34.736Z,3.30
2022-11-03T18:12:57.899Z,4.70
2022-11-03T18:16:58.408Z,4.70
2022-11-03T18:20:58.281Z,4.70
2022-11-03T18:25:01.092Z,5.40
2022-11-03T18:28:34.362Z,4.30
2022-11-03T18:32:36.057Z,5.20
2022-11-03T18:36:35.791Z,5.30
2022-11-03T18:40:36.985Z,4.30
2022-11-03T18:44:36.748Z,5.30
2022-11-03T18:48:35.881Z,5.00
2022-11-03T18:52:45.051Z,4.00
2022-11-03T18:56:45.432Z,4.00
2022-11-03T19:00:44.806Z,5.60
2022-11-03T19:04:45.087Z,5.10
2022-11-03T19:08:46.866Z,3.90
2022-11-03T19:12:47.219Z,5.00
2022-11-03T19:17:08.845Z,4.30
2022-11-03T19:21:25.606Z,5.40
2022-11-03T19:25:25.390Z,4.50
2022-11-03T19:29:28.882Z,3.40
2022-11-03T19:33:31.623Z,4.20
2022-11-03T19:37:35.755Z,3.20
2022-11-03T19:41:54.692Z,3.50
2022-11-03T19:45:55.428Z,3.10
2022-11-03T19:49:55.428Z,4.10
2022-11-03T19:53:56.118Z,2.40
2022-11-03T19:58:26.507Z,3.90
2022-11-03T20:02:28.597Z,3.30
2022-11-03T20:06:49.740Z,3.70
2022-11-03T20:10:07.785Z,3.90
2022-11-03T20:14:07.486Z,3.50
2022-11-03T20:18:07.146Z,4.60
2022-11-03T20:22:30.543Z,3.50
2022-11-03T20:25:46.548Z,4.90
2022-11-03T20:29:48.363Z,3.80
2022-11-03T20:33:47.636Z,3.20
2022-11-03T20:37:50.943Z,3.20
2022-11-03T20:41:57.090Z,4.10
2022-11-03T20:45:58.157Z,3.90
2022-11-03T20:50:03.893Z,3.50
2022-11-03T20:53:36.003Z,2.70
2022-11-03T20:57:35.141Z,3.50
2022-11-03T21:01:35.903Z,3.00
2022-11-03T21:05:36.929Z,3.90
2022-11-03T21:09:37.330Z,3.70
2022-11-03T21:13:37.653Z,3.80
2022-11-03T21:17:55.684Z,4.20
2022-11-03T21:21:54.584Z,3.20
2022-11-03T21:25:57.057Z,3.60
2022-11-03T21:29:59.407Z,4.00
2022-11-03T21:33:09.715Z,5.30
2022-11-03T21:37:14.538Z,4.60
2022-11-03T21:41:32.582Z,4.40
2022-11-03T21:45:32.138Z,4.20
2022-11-03T21:49:43.811Z,5.20
2022-11-03T21:53:43.936Z,4.30
2022-11-03T21:57:43.872Z,4.10
2022-11-03T22:01:42.877Z,6.40
2022-11-03T22:05:42.411Z,4.80
2022-11-03T22:09:42.310Z,4.10
2022-11-03T22:13:41.829Z,3.30
2022-11-03T22:17:43.887Z,3.90
2022-11-03T22:22:02.988Z,3.90
2022-11-03T22:26:22.211Z,3.90
2022-11-03T22:29:57.932Z,4.00
2022-11-03T22:34:14.958Z,2.80
2022-11-03T22:38:15.601Z,4.40
2022-11-03T22:42:36.289Z,4.00
2022-11-03T22:45:51.741Z,5.10
2022-11-03T22:49:50.419Z,3.70
2022-11-03T22:54:08.106Z,3.90
2022-11-03T22:58:06.792Z,4.00
2022-11-03T23:02:05.783Z,3.30
2022-11-03T23:06:07.658Z,3.00
2022-11-03T23:10:07.067Z,3.70
2022-11-03T23:14:11.675Z,2.40
2022-11-03T23:18:29.235Z,2.40
2022-11-03T23:22:28.168Z,2.90
2022-11-03T23:26:27.755Z,3.80
2022-11-03T23:30:26.615Z,3.60
2022-11-03T23:34:27.016Z,3.40
2022-11-03T23:38:26.970Z,3.40
2022-11-03T23:42:26.278Z,3.60
2022-11-03T23:46:47.784Z,3.60
2022-11-03T23:50:46.907Z,3.90
2022-11-03T23:54:45.793Z,4.20
2022-11-03T23:58:45.152Z,4.50
